createdAt,value
2019-04-29T00:01:09.130Z,1.49
2019-04-29T00:04:39.110Z,5.55
2019-04-29T00:08:09.244Z,1.4
2019-04-29T00:11:39.224Z,1.69
2019-04-29T00:15:27.289Z,1.39
2019-04-29T00:19:38.883Z,1.46
2019-04-29T00:23:08.939Z,1.32
2019-04-29T00:26:39.220Z,1.9
2019-04-29T00:30:17.945Z,2.22
2019-04-29T00:33:48.009Z,2.39
2019-04-29T00:37:30.845Z,1.71
2019-04-29T00:41:19.517Z,1.8
2019-04-29T00:44:49.633Z,1.76
2019-04-29T00:48:19.792Z,1.58
2019-04-29T00:51:49.955Z,1.84
2019-04-29T00:55:23.318Z,2.07
2019-04-29T00:58:53.353Z,1.73
2019-04-29T01:00:29.644Z,2.08
2019-04-29T01:03:59.754Z,1.82
2019-04-29T01:07:29.878Z,1.73
2019-04-29T01:10:59.922Z,1.8
2019-04-29T01:14:29.994Z,1.43
2019-04-29T01:18:01.002Z,1.68
2019-04-29T01:21:31.106Z,1.91
2019-04-29T01:25:01.259Z,2.31
2019-04-29T01:28:38.191Z,1.46
2019-04-29T01:32:08.438Z,1.93
2019-04-29T01:35:38.583Z,2.29
2019-04-29T01:39:10.622Z,1.81
2019-04-29T01:42:41.353Z,1.89
2019-04-29T01:46:11.478Z,1.95
2019-04-29T01:49:41.520Z,1.86
2019-04-29T01:53:11.527Z,1.39
2019-04-29T01:56:41.768Z,2.83
2019-04-29T02:00:12.614Z,1.99
2019-04-29T02:03:42.811Z,2.33
2019-04-29T02:07:12.838Z,1.88
2019-04-29T02:10:42.841Z,2.04
2019-04-29T02:14:12.966Z,1.56
2019-04-29T02:17:43.067Z,1.97
2019-04-29T02:21:14.002Z,1.68
2019-04-29T02:24:48.171Z,1.95
2019-04-29T02:28:18.328Z,2.14
2019-04-29T02:31:48.577Z,1.79
2019-04-29T02:35:18.645Z,1.68
2019-04-29T02:39:07.270Z,2.02
2019-04-29T02:42:48.661Z,1.79
2019-04-29T02:46:18.723Z,1.44
2019-04-29T02:49:48.761Z,2.2
2019-04-29T02:53:18.793Z,1.79
2019-04-29T02:56:59.128Z,1.66
2019-04-29T03:00:30.006Z,2.41
2019-04-29T03:04:07.682Z,2.16
2019-04-29T03:07:37.733Z,1.75
2019-04-29T03:11:07.882Z,2.11
2019-04-29T03:14:37.945Z,1.51
2019-04-29T03:18:08.036Z,1.79
2019-04-29T03:21:56.246Z,2.06
2019-04-29T03:25:26.367Z,1.34
2019-04-29T03:28:56.457Z,1.46
2019-04-29T03:32:26.580Z,1.7
2019-04-29T03:35:56.661Z,1.66
2019-04-29T03:39:26.826Z,1.77
2019-04-29T03:42:56.847Z,1.84
2019-04-29T03:46:26.946Z,1.81
2019-04-29T03:49:57.114Z,2.01
2019-04-29T03:53:28.460Z,1.41
2019-04-29T03:56:58.662Z,1.81
2019-04-29T04:00:28.785Z,1.51
2019-04-29T04:04:03.184Z,1.54
2019-04-29T04:07:39.774Z,1.34
2019-04-29T04:11:09.896Z,1.86
2019-04-29T04:14:39.992Z,1.6
2019-04-29T04:18:16.843Z,1.5
2019-04-29T04:21:46.901Z,1.39
2019-04-29T04:25:18.171Z,1.5
2019-04-29T04:28:48.255Z,1.45
2019-04-29T04:32:18.358Z,1.55
2019-04-29T04:35:48.432Z,1.54
2019-04-29T04:39:18.437Z,2
2019-04-29T04:42:48.534Z,2.44
2019-04-29T04:46:18.513Z,2.35
2019-04-29T04:49:48.708Z,2.74
2019-04-29T04:53:18.786Z,2.33
2019-04-29T04:56:48.830Z,2.11
2019-04-29T05:00:21.462Z,2.8
2019-04-29T05:03:51.580Z,2.16
2019-04-29T05:07:21.712Z,2.53
2019-04-29T05:10:51.920Z,4.24
2019-04-29T05:14:22.059Z,4.03
2019-04-29T05:17:53.276Z,2.43
2019-04-29T05:21:23.422Z,2.39
2019-04-29T05:24:53.440Z,2.92
2019-04-29T05:28:23.471Z,2.96
2019-04-29T05:31:53.587Z,2.12
2019-04-29T05:35:29.118Z,2.95
2019-04-29T05:39:09.876Z,2.58
2019-04-29T05:42:39.959Z,2.52
2019-04-29T05:48:32.181Z,3.02
2019-04-29T05:54:26.974Z,2.41
2019-04-29T05:58:16.969Z,2.29
2019-04-29T06:01:47.549Z,2.06
2019-04-29T06:05:18.888Z,2.79
2019-04-29T06:08:49.023Z,2.1
2019-04-29T06:12:18.966Z,2.36
2019-04-29T06:15:49.120Z,3.09
2019-04-29T06:19:19.177Z,2.24
2019-04-29T06:22:49.326Z,2.35
2019-04-29T06:26:19.487Z,2.55
2019-04-29T06:29:51.352Z,1.89
2019-04-29T06:33:24.138Z,2.52
2019-04-29T06:36:58.533Z,1.83
2019-04-29T06:40:30.750Z,1.96
2019-04-29T06:44:06.650Z,2.61
2019-04-29T06:47:41.788Z,2.64
2019-04-29T06:51:11.983Z,3.04
2019-04-29T06:54:42.015Z,3.01
2019-04-29T06:58:12.080Z,2.44
2019-04-29T07:00:17.636Z,2.44
2019-04-29T07:03:51.798Z,2.23
2019-04-29T07:07:21.943Z,3.79
2019-04-29T07:10:55.983Z,2.58
2019-04-29T07:14:33.308Z,1.75
2019-04-29T07:18:04.834Z,2.79
2019-04-29T07:21:34.928Z,2.8
2019-04-29T07:25:05.269Z,2.76
2019-04-29T07:28:35.360Z,3.02
2019-04-29T07:32:09.338Z,2.54
2019-04-29T07:35:43.060Z,2.66
2019-04-29T07:39:17.346Z,2.52
2019-04-29T07:42:47.396Z,2.2
2019-04-29T07:46:24.719Z,2.25
2019-04-29T07:49:54.844Z,2.88
2019-04-29T07:53:34.481Z,2.19
2019-04-29T07:57:12.371Z,2.71
2019-04-29T08:00:48.882Z,2.34
2019-04-29T08:04:20.089Z,2.31
2019-04-29T08:07:50.496Z,2.55
2019-04-29T08:11:20.632Z,2.36
2019-04-29T08:14:53.359Z,3.16
2019-04-29T08:18:27.574Z,2.4
2019-04-29T08:21:57.647Z,2.66
2019-04-29T08:25:27.670Z,3.02
2019-04-29T08:29:00.385Z,3.3
2019-04-29T08:32:36.442Z,3.29
2019-04-29T08:36:08.054Z,2.47
2019-04-29T08:39:38.051Z,3.01
2019-04-29T08:43:28.508Z,3.41
2019-04-29T08:47:07.631Z,3.39
2019-04-29T08:50:37.812Z,3.1
2019-04-29T08:54:07.900Z,2.7
2019-04-29T08:57:37.991Z,2.64
2019-04-29T09:00:17.066Z,3.15
2019-04-29T09:03:47.182Z,3.7
2019-04-29T09:07:21.392Z,2.96
2019-04-29T09:10:52.160Z,2.64
2019-04-29T09:14:22.114Z,3.24
2019-04-29T09:17:52.184Z,2.3
2019-04-29T09:21:22.196Z,2.9
2019-04-29T09:27:17.246Z,3.15
2019-04-29T09:30:47.668Z,3.45
2019-04-29T09:34:19.858Z,2.95
2019-04-29T09:37:58.300Z,3.26
2019-04-29T09:41:39.189Z,2.14
2019-04-29T09:45:19.478Z,2.42
2019-04-29T09:48:52.180Z,2.62
2019-04-29T09:52:22.208Z,2.92
2019-04-29T09:55:52.374Z,1.7
2019-04-29T09:59:27.195Z,2.08
2019-04-29T10:03:04.025Z,2.71
2019-04-29T10:06:36.240Z,2.17
2019-04-29T10:10:06.822Z,2.61
2019-04-29T10:13:37.819Z,2.88
2019-04-29T10:17:21.715Z,3.16
2019-04-29T10:20:58.487Z,2.5
2019-04-29T10:24:28.534Z,2.14
2019-04-29T10:27:58.638Z,2.6
2019-04-29T10:31:28.907Z,2.24
2019-04-29T10:35:03.610Z,2.41
2019-04-29T10:38:40.537Z,1.61
2019-04-29T10:42:22.723Z,1.76
2019-04-29T10:46:30.927Z,1.49
2019-04-29T10:50:05.288Z,2.26
2019-04-29T10:53:35.465Z,1.8
2019-04-29T10:57:05.825Z,2.34
2019-04-29T11:02:13.947Z,2.31
2019-04-29T11:05:59.992Z,1.8
2019-04-29T11:09:52.666Z,2.01
2019-04-29T11:13:23.005Z,2.27
2019-04-29T11:16:53.052Z,2.47
2019-04-29T11:20:23.713Z,2.35
2019-04-29T11:26:28.540Z,1.9
2019-04-29T11:30:02.382Z,2
2019-04-29T11:33:46.521Z,2.04
2019-04-29T11:37:19.477Z,1.61
2019-04-29T11:40:50.305Z,1.85
2019-04-29T11:44:21.956Z,1.96
2019-04-29T11:47:56.174Z,2.59
2019-04-29T11:51:41.709Z,2.61
2019-04-29T11:55:20.182Z,2.34
2019-04-29T11:59:01.492Z,2.04
2019-04-29T12:02:45.891Z,2.36
2019-04-29T12:06:20.522Z,1.71
2019-04-29T12:09:51.134Z,5.96
2019-04-29T12:13:31.451Z,2.74
2019-04-29T12:17:16.584Z,2
2019-04-29T12:21:07.524Z,1.81
2019-04-29T12:24:37.664Z,2.06
2019-04-29T12:28:18.763Z,2.39
2019-04-29T12:32:32.783Z,2.24
2019-04-29T12:36:06.139Z,2.48
2019-04-29T12:42:40.241Z,3.5
2019-04-29T12:46:16.911Z,3.55
2019-04-29T12:49:48.161Z,3.2
2019-04-29T12:53:18.436Z,3.91
2019-04-29T12:56:49.490Z,3.64
2019-04-29T13:00:22.262Z,4.75
2019-04-29T13:03:58.521Z,4.03
2019-04-29T13:07:50.439Z,5.74
2019-04-29T13:11:22.353Z,4.4
2019-04-29T13:15:12.661Z,6.77
2019-04-29T13:19:20.750Z,6.72
2019-04-29T13:22:50.942Z,7.16
2019-04-29T13:26:27.783Z,5.68
2019-04-29T13:29:58.760Z,6.2
2019-04-29T13:33:28.930Z,4.9
2019-04-29T13:37:07.377Z,5.56
2019-04-29T13:40:39.445Z,5.5
2019-04-29T13:44:10.550Z,4.75
2019-04-29T13:50:17.993Z,5
2019-04-29T13:53:50.429Z,5.76
2019-04-29T13:57:20.578Z,5.07
2019-04-29T14:01:02.780Z,4.28
2019-04-29T14:04:37.125Z,5.44
2019-04-29T14:08:07.291Z,4.49
2019-04-29T14:11:37.505Z,4.39
2019-04-29T14:15:07.812Z,6.32
2019-04-29T14:18:37.945Z,6.35
2019-04-29T14:22:21.059Z,5.66
2019-04-29T14:25:52.254Z,7.65
2019-04-29T14:29:23.044Z,6
2019-04-29T14:33:01.947Z,5.46
2019-04-29T14:36:32.197Z,6.25
2019-04-29T14:40:07.241Z,5.69
2019-04-29T14:43:54.467Z,6.34
2019-04-29T14:47:35.484Z,4.5
2019-04-29T14:51:05.827Z,5.38
2019-04-29T14:54:36.984Z,5.38
2019-04-29T14:58:11.678Z,4.61
2019-04-29T15:00:29.467Z,5.67
2019-04-29T15:04:01.545Z,5.46
2019-04-29T15:07:35.852Z,6.5
2019-04-29T15:11:09.097Z,8.12
2019-04-29T15:15:06.407Z,10.74
2019-04-29T15:21:06.815Z,8.9
2019-04-29T15:24:38.038Z,7.3
2019-04-29T15:28:08.196Z,6.55
2019-04-29T15:31:38.253Z,6.92
2019-04-29T15:35:08.461Z,10.32
2019-04-29T15:38:38.603Z,8.12
2019-04-29T15:42:09.151Z,8.61
2019-04-29T15:45:40.640Z,8.2
2019-04-29T15:49:11.953Z,7.39
2019-04-29T15:52:42.034Z,9.25
2019-04-29T15:56:27.654Z,7.9
2019-04-29T16:00:01.056Z,10.94
2019-04-29T16:03:31.307Z,9.98
2019-04-29T16:07:24.512Z,7.71
2019-04-29T16:12:20.866Z,9.05
2019-04-29T16:15:50.939Z,13.25
2019-04-29T16:19:21.044Z,9.89
2019-04-29T16:22:54.066Z,7.89
2019-04-29T16:26:30.450Z,9.71
2019-04-29T16:30:02.788Z,11.3
2019-04-29T16:33:32.890Z,11.24
2019-04-29T16:37:03.447Z,9.71
2019-04-29T16:40:39.466Z,9.06
2019-04-29T16:44:33.992Z,9.75
2019-04-29T16:48:05.346Z,10.76
2019-04-29T16:51:36.347Z,10.05
2019-04-29T16:55:06.920Z,10.06
2019-04-29T16:58:37.022Z,14.26
2019-04-29T17:00:23.221Z,13.46
2019-04-29T17:03:53.295Z,13.26
2019-04-29T17:07:23.647Z,9.34
2019-04-29T17:11:17.758Z,10.59
2019-04-29T17:15:04.075Z,11.46
2019-04-29T17:18:34.976Z,11.55
2019-04-29T17:28:12.087Z,6.56
2019-04-29T17:34:25.107Z,8.11
2019-04-29T17:35:14.702Z,7.38
2019-04-29T17:38:14.023Z,8.07
2019-04-29T17:41:44.159Z,6.53
2019-04-29T17:45:27.102Z,6.44
2019-04-29T17:49:12.013Z,4.26
2019-04-29T17:52:42.215Z,3.99
2019-04-29T17:56:24.676Z,5.47
2019-04-29T18:00:08.687Z,5.16
2019-04-29T18:05:20.165Z,9.74
2019-04-29T18:08:55.132Z,7.48
2019-04-29T18:12:25.257Z,5.22
2019-04-29T18:16:01.592Z,4.62
2019-04-29T18:19:47.146Z,5.94
2019-04-29T18:23:47.113Z,5.05
2019-04-29T18:27:19.076Z,4.41
2019-04-29T18:30:49.767Z,5.62
2019-04-29T18:34:25.125Z,6.51
2019-04-29T18:37:55.705Z,6.03
2019-04-29T18:41:28.685Z,6.11
2019-04-29T18:45:00.404Z,7.46
2019-04-29T18:48:30.552Z,5.47
2019-04-29T18:52:02.318Z,7.42
2019-04-29T18:55:35.364Z,6.86
2019-04-29T18:59:05.494Z,8.44
2019-04-29T19:00:19.989Z,8.18
2019-04-29T19:04:18.643Z,8.56
2019-04-29T19:07:55.116Z,9.62
2019-04-29T19:11:32.145Z,10.12
2019-04-29T19:15:05.061Z,11.6
2019-04-29T19:18:40.233Z,10.88
2019-04-29T19:22:10.206Z,11.59
2019-04-29T19:25:41.615Z,10.88
2019-04-29T19:29:15.715Z,11.82
2019-04-29T19:32:46.880Z,14.18
2019-04-29T19:36:18.522Z,12.81
2019-04-29T19:39:52.475Z,15.74
2019-04-29T19:43:26.191Z,16.1
2019-04-29T19:46:58.932Z,15.14
2019-04-29T19:50:29.089Z,17.16
2019-04-29T19:53:59.125Z,15.28
2019-04-29T19:57:29.284Z,16.15
2019-04-29T20:01:13.996Z,15.7
2019-04-29T20:04:58.872Z,14.53
2019-04-29T20:08:48.302Z,16.86
2019-04-29T20:12:25.250Z,17.96
2019-04-29T20:16:21.012Z,15.56
2019-04-29T20:20:00.297Z,16.21
2019-04-29T20:23:35.842Z,15.22
2019-04-29T20:27:08.853Z,16.84
2019-04-29T20:30:38.980Z,16.64
2019-04-29T20:34:09.502Z,16.43
2019-04-29T20:37:39.825Z,15.94
2019-04-29T20:41:13.020Z,16.93
2019-04-29T20:44:49.361Z,16.98
2019-04-29T20:48:19.906Z,16.64
2019-04-29T20:51:56.333Z,15.15
2019-04-29T20:55:26.543Z,17.11
2019-04-29T20:58:57.681Z,15.73
2019-04-29T21:00:20.189Z,18.62
2019-04-29T21:03:56.514Z,16.07
2019-04-29T21:07:27.022Z,14.7
2019-04-29T21:11:01.102Z,16.94
2019-04-29T21:14:38.190Z,15.46
2019-04-29T21:18:10.343Z,15.82
2019-04-29T21:21:45.808Z,14.88
2019-04-29T21:25:17.555Z,15.21
2019-04-29T21:28:47.637Z,17.46
2019-04-29T21:32:17.673Z,16.2
2019-04-29T21:35:57.864Z,15.85
2019-04-29T21:40:13.721Z,17.06
2019-04-29T21:47:26.805Z,17.23
2019-04-29T21:50:58.329Z,16.6
2019-04-29T21:54:28.386Z,16.4
2019-04-29T21:57:58.974Z,16.11
2019-04-29T22:01:34.272Z,15.4
2019-04-29T22:05:09.577Z,14.55
2019-04-29T22:08:45.220Z,14.8
2019-04-29T22:12:20.301Z,14.94
2019-04-29T22:15:51.446Z,15.61
2019-04-29T22:19:26.113Z,16.93
2019-04-29T22:22:57.951Z,14.64
2019-04-29T22:26:28.029Z,13.69
2019-04-29T22:29:58.240Z,16.19
2019-04-29T22:33:29.672Z,14.88
2019-04-29T22:37:05.539Z,15.83
2019-04-29T22:40:40.904Z,15.59
2019-04-29T22:44:15.154Z,13.75
2019-04-29T22:47:54.397Z,15.94
2019-04-29T22:51:25.435Z,15.01
2019-04-29T22:54:57.899Z,14.5
2019-04-29T22:58:31.465Z,13.41
2019-04-29T23:00:20.426Z,16.12
2019-04-29T23:03:51.523Z,16.7
2019-04-29T23:07:22.298Z,15.3
2019-04-29T23:10:55.455Z,14.49
2019-04-29T23:14:27.494Z,14.33
2019-04-29T23:17:57.551Z,15.5
2019-04-29T23:23:48.639Z,16.41
2019-04-29T23:27:19.661Z,13.28
2019-04-29T23:30:52.173Z,12.66
2019-04-29T23:34:27.723Z,13.81
2019-04-29T23:38:04.177Z,13.4
2019-04-29T23:41:38.962Z,14.16
2019-04-29T23:45:09.282Z,12.94
2019-04-29T23:48:39.788Z,13.06
2019-04-29T23:52:11.555Z,12.76
2019-04-29T23:55:45.562Z,12.99
2019-04-29T23:59:24.793Z,12.94
